Time;durP1;ratioP1;P1;durP2;ratioP2;P2;SDS_P1;SDS_P2;PMS_P1;PMS_P2;Temp;Humidity;BMP_temperature;BMP_pressure;BME280_temperature;BME280_humidity;BME280_pressure;Samples;Min_cycle;Max_cycle;Signal;HPM_P1;HPM_P2
2023/12/21 00:00:34;;;;;;;;;;;;;;;25.93;37.06;94399.50;5034698;28;8979;-61
2023/12/21 00:03:12;;;;;;;;;;;;;;;25.88;36.58;94398.28;5032921;28;6976;-61
2023/12/21 00:05:42;;;;;;;;;;;;;;;25.91;37.15;94391.75;5032940;28;7004;-61
2023/12/21 00:08:12;;;;;;;;;;;;;;;25.93;36.85;94394.00;5031675;28;6994;-61
2023/12/21 00:10:42;;;;;;;;;;;;;;;25.92;37.26;94392.50;5017826;28;7263;-61
2023/12/21 00:13:34;;;;;;;;;;;;;;;25.96;36.85;94398.50;5022217;28;7073;-61
2023/12/21 00:16:10;;;;;;;;;;;;;;;25.94;37.29;94401.78;5039938;28;8270;-61
2023/12/21 00:18:36;;;;;;;;;;;;;;;25.91;36.62;94391.75;5028733;28;7992;-61
2023/12/21 00:21:17;;;;;;;;;;;;;;;25.90;37.50;94381.25;5035749;28;6973;-61
2023/12/21 00:24:33;;;;;;;;;;;;;;;25.92;36.66;94390.50;5025000;28;7066;-61
2023/12/21 00:27:42;;;;;;;;;;;;;;;25.91;36.82;94391.75;5011944;28;8772;-61
2023/12/21 00:30:25;;;;;;;;;;;;;;;25.90;37.32;94382.00;5001144;28;7213;-61
2023/12/21 00:33:26;;;;;;;;;;;;;;;25.93;37.13;94369.19;5005904;28;7453;-61
2023/12/21 00:36:03;;;;;;;;;;;;;;;25.92;36.83;94367.72;4953992;28;7006;-61
2023/12/21 00:38:39;;;;;;;;;;;;;;;25.90;37.28;94373.72;4938867;28;7372;-61
2023/12/21 00:41:11;;;;;;;;;;;;;;;25.93;36.80;94366.44;4954773;28;7285;-61
2023/12/21 00:43:47;;;;;;;;;;;;;;;25.92;37.37;94371.22;4938977;28;7016;-61
2023/12/21 00:46:15;;;;;;;;;;;;;;;25.91;36.80;94377.22;4935609;28;7345;-61
2023/12/21 00:48:42;;;;;;;;;;;;;;;25.87;37.32;94361.00;4950644;28;8711;-61
2023/12/21 00:51:10;;;;;;;;;;;;;;;25.91;37.35;94364.22;4942701;28;7059;-61
2023/12/21 00:53:36;;;;;;;;;;;;;;;25.92;37.00;94360.19;4925306;28;9230;-62
2023/12/21 00:56:04;;;;;;;;;;;;;;;25.93;36.71;94353.41;4935115;28;9104;-62
2023/12/21 00:58:32;;;;;;;;;;;;;;;25.92;37.30;94343.66;4923717;28;7262;-62
2023/12/21 01:01:01;;;;;;;;;;;;;;;25.92;36.48;94343.66;4948554;28;7211;-62
2023/12/21 01:03:30;;;;;;;;;;;;;;;25.91;37.20;94331.13;4944960;28;7110;-62
2023/12/21 01:06:07;;;;;;;;;;;;;;;25.91;36.91;94330.38;4991995;28;7521;-62
2023/12/21 01:08:33;;;;;;;;;;;;;;;25.89;37.17;94339.19;4988975;28;9061;-62
2023/12/21 01:11:01;;;;;;;;;;;;;;;25.91;37.45;94344.91;4984897;28;7347;-62
2023/12/21 01:13:40;;;;;;;;;;;;;;;25.87;36.90;94340.94;5026509;28;6865;-62
2023/12/21 01:16:10;;;;;;;;;;;;;;;25.88;36.78;94331.44;5027340;28;8487;-62
2023/12/21 01:18:38;;;;;;;;;;;;;;;25.92;37.13;94343.66;5041917;28;7218;-62
2023/12/21 01:21:23;;;;;;;;;;;;;;;25.91;37.06;94342.16;5030147;28;7256;-62
2023/12/21 01:23:51;;;;;;;;;;;;;;;25.88;37.00;94334.19;4999484;28;7062;-62
2023/12/21 01:26:27;;;;;;;;;;;;;;;25.85;37.23;94327.69;5023078;28;7265;-62
2023/12/21 01:28:55;;;;;;;;;;;;;;;25.82;37.21;94325.94;5024911;28;7805;-62
2023/12/21 01:31:28;;;;;;;;;;;;;;;25.86;37.36;94342.94;5022150;28;7246;-62
2023/12/21 01:33:57;;;;;;;;;;;;;;;25.86;37.30;94336.72;5034142;28;7814;-62
2023/12/21 01:36:26;;;;;;;;;;;;;;;25.82;36.75;94339.72;5031871;28;7251;-62
2023/12/21 01:38:52;;;;;;;;;;;;;;;25.83;36.99;94338.47;5028587;28;8764;-62
2023/12/21 01:41:18;;;;;;;;;;;;;;;25.86;37.29;94328.44;5026740;28;7149;-62
2023/12/21 01:43:56;;;;;;;;;;;;;;;25.90;36.94;94313.09;5027859;28;6995;-62
2023/12/21 01:46:53;;;;;;;;;;;;;;;25.84;37.34;94309.66;5030074;28;7278;-62
2023/12/21 01:49:57;;;;;;;;;;;;;;;25.81;36.83;94323.72;4976100;28;7141;-62
2023/12/21 01:52:50;;;;;;;;;;;;;;;25.86;36.73;94331.19;4919235;29;6986;-62
2023/12/21 01:55:30;;;;;;;;;;;;;;;25.86;36.62;94322.94;4933320;28;9214;-62
2023/12/21 01:58:25;;;;;;;;;;;;;;;25.83;36.77;94305.41;4935007;28;7465;-62
2023/12/21 02:00:57;;;;;;;;;;;;;;;25.83;37.38;94294.41;4941208;28;7100;-62
2023/12/21 02:03:41;;;;;;;;;;;;;;;25.82;37.37;94286.63;4934502;29;7281;-62
2023/12/21 02:06:08;;;;;;;;;;;;;;;25.86;37.02;94290.59;4920403;29;9365;-55
2023/12/21 02:08:44;;;;;;;;;;;;;;;25.87;37.53;94272.81;4926646;29;6907;-55
2023/12/21 02:11:17;;;;;;;;;;;;;;;25.86;37.07;94268.56;4935021;29;9535;-55
2023/12/21 02:13:46;;;;;;;;;;;;;;;25.90;37.01;94262.78;4934491;29;7010;-55
2023/12/21 02:16:26;;;;;;;;;;;;;;;25.87;36.93;94259.03;4934739;29;7232;-55
2023/12/21 02:19:24;;;;;;;;;;;;;;;25.87;37.18;94283.84;4933655;29;7069;-55
2023/12/21 02:21:56;;;;;;;;;;;;;;;25.84;37.42;94276.59;4915635;29;7264;-55
2023/12/21 02:24:33;;;;;;;;;;;;;;;25.80;36.58;94281.63;4954587;28;7454;-55
2023/12/21 02:27:02;;;;;;;;;;;;;;;25.83;36.81;94274.34;4970270;28;7065;-55
2023/12/21 02:29:28;;;;;;;;;;;;;;;25.84;37.28;94262.81;4988660;28;8949;-55
2023/12/21 02:31:56;;;;;;;;;;;;;;;25.85;37.22;94256.06;4987696;28;7230;-56
2023/12/21 02:34:22;;;;;;;;;;;;;;;25.86;36.87;94251.28;4979250;28;7352;-55
2023/12/21 02:36:48;;;;;;;;;;;;;;;25.87;36.85;94247.25;4980773;28;7217;-55
2023/12/21 02:39:16;;;;;;;;;;;;;;;25.87;36.62;94231.47;4981466;28;7009;-55
2023/12/21 02:41:52;;;;;;;;;;;;;;;25.88;36.73;94219.19;4979426;28;6995;-55
2023/12/21 02:45:07;;;;;;;;;;;;;;;25.86;36.36;94212.72;4983989;28;7295;-55
2023/12/21 02:47:44;;;;;;;;;;;;;;;25.83;36.95;94205.47;4937782;29;7077;-55
2023/12/21 02:50:10;;;;;;;;;;;;;;;25.81;36.92;94206.00;4952584;28;7280;-55
2023/12/21 02:52:36;;;;;;;;;;;;;;;25.86;36.73;94210.69;4935270;29;7042;-55
2023/12/21 02:55:05;;;;;;;;;;;;;;;25.81;37.04;94196.97;4932731;29;7443;-55
2023/12/21 02:57:48;;;;;;;;;;;;;;;25.84;36.92;94199.44;4944405;28;9378;-55
2023/12/21 03:00:24;;;;;;;;;;;;;;;25.81;37.00;94194.97;4964229;28;8951;-55
2023/12/21 03:02:50;;;;;;;;;;;;;;;25.82;37.03;94196.47;4988183;28;9024;-55
2023/12/21 03:05:27;;;;;;;;;;;;;;;25.80;36.46;94190.72;4974449;28;7045;-55
2023/12/21 03:07:57;;;;;;;;;;;;;;;25.83;36.59;94195.22;4963359;28;8760;-55
2023/12/21 03:10:32;;;;;;;;;;;;;;;25.83;36.36;94189.69;4974067;28;7016;-55
2023/12/21 03:13:04;;;;;;;;;;;;;;;25.87;37.27;94192.91;4977997;28;7271;-55
2023/12/21 03:15:38;;;;;;;;;;;;;;;25.86;36.71;94190.69;4965852;28;9405;-56
2023/12/21 03:18:05;;;;;;;;;;;;;;;25.88;36.50;94188.16;4971973;28;7125;-55
2023/12/21 03:20:32;;;;;;;;;;;;;;;25.89;36.73;94173.09;4972611;28;9085;-55
2023/12/21 03:23:01;;;;;;;;;;;;;;;25.87;36.16;94170.09;4969659;28;7199;-55
2023/12/21 03:25:28;;;;;;;;;;;;;;;25.82;37.04;94168.91;5034459;28;7747;-55
2023/12/21 03:27:56;;;;;;;;;;;;;;;25.80;37.14;94168.69;5037909;28;9060;-55
2023/12/21 03:30:34;;;;;;;;;;;;;;;25.79;37.02;94180.97;5016686;28;7139;-55
2023/12/21 03:33:00;;;;;;;;;;;;;;;25.82;36.46;94179.94;5023981;28;7718;-55
2023/12/21 03:35:35;;;;;;;;;;;;;;;25.83;36.35;94170.41;5022618;28;10166;-55
2023/12/21 03:38:04;;;;;;;;;;;;;;;25.78;36.56;94153.94;5044098;28;7049;-55
2023/12/21 03:40:32;;;;;;;;;;;;;;;25.75;37.27;94133.66;5029318;28;9597;-55
2023/12/21 03:43:12;;;;;;;;;;;;;;;25.75;36.99;94122.66;5019106;28;9078;-55
2023/12/21 03:45:40;;;;;;;;;;;;;;;25.74;37.05;94112.91;5028787;28;7216;-55
2023/12/21 03:48:46;;;;;;;;;;;;;;;25.78;37.09;94101.59;5019540;28;7090;-55
2023/12/21 03:51:13;;;;;;;;;;;;;;;25.74;37.10;94090.88;5031674;28;6991;-55
2023/12/21 03:53:45;;;;;;;;;;;;;;;25.72;36.79;94090.63;5019070;28;6974;-55
2023/12/21 03:56:12;;;;;;;;;;;;;;;25.71;36.99;94104.94;5026194;28;8222;-55
2023/12/21 03:58:39;;;;;;;;;;;;;;;25.71;37.00;94102.91;5031117;28;7230;-55
2023/12/21 04:01:35;;;;;;;;;;;;;;;25.70;37.08;94101.44;5026088;28;8802;-55
2023/12/21 04:04:11;;;;;;;;;;;;;;;25.69;37.31;94102.69;4971636;28;7230;-54
2023/12/21 04:07:11;;;;;;;;;;;;;;;25.69;36.54;94108.19;4991619;28;9383;-55
2023/12/21 04:09:38;;;;;;;;;;;;;;;25.65;36.53;94091.22;4894930;29;9173;-55
2023/12/21 04:12:10;;;;;;;;;;;;;;;25.69;37.09;94088.91;4879113;29;7202;-55
2023/12/21 04:14:35;;;;;;;;;;;;;;;25.70;37.29;94090.41;4893168;29;7203;-55
2023/12/21 04:17:04;;;;;;;;;;;;;;;25.72;36.95;94087.88;4901046;29;7244;-55
2023/12/21 04:19:43;;;;;;;;;;;;;;;25.71;36.96;94089.13;4917091;29;6996;-55
2023/12/21 04:22:27;;;;;;;;;;;;;;;25.70;36.57;94104.19;4879765;29;9090;-55
2023/12/21 04:25:03;;;;;;;;;;;;;;;25.66;36.78;94092.72;4881786;29;6975;-55
2023/12/21 04:27:42;;;;;;;;;;;;;;;25.69;37.12;94093.66;4898478;29;7288;-55
2023/12/21 04:30:35;;;;;;;;;;;;;;;25.68;37.29;94092.19;4901629;29;7250;-55
2023/12/21 04:33:03;;;;;;;;;;;;;;;25.66;37.00;94100.22;4903911;29;7076;-55
2023/12/21 04:35:38;;;;;;;;;;;;;;;25.67;37.22;94109.97;4905011;29;7191;-55
2023/12/21 04:38:05;;;;;;;;;;;;;;;25.65;37.27;94096.72;4917658;29;7154;-55
2023/12/21 04:40:52;;;;;;;;;;;;;;;25.63;37.18;94082.72;4927526;28;7020;-55
2023/12/21 04:43:29;;;;;;;;;;;;;;;25.62;37.04;94086.72;4938176;28;8439;-55
2023/12/21 04:46:01;;;;;;;;;;;;;;;25.61;37.08;94085.25;4999291;28;9104;-55
2023/12/21 04:48:33;;;;;;;;;;;;;;;25.60;37.17;94080.28;5034627;28;7096;-55
2023/12/21 04:51:05;;;;;;;;;;;;;;;25.61;37.28;94077.00;5022267;28;6995;-55
2023/12/21 04:53:33;;;;;;;;;;;;;;;25.60;37.01;94067.22;5031770;28;7213;-55
2023/12/21 04:56:09;;;;;;;;;;;;;;;25.62;36.57;94077.75;5031959;28;7201;-55
2023/12/21 04:58:35;;;;;;;;;;;;;;;25.61;37.19;94071.50;5017806;28;7346;-55
2023/12/21 05:01:01;;;;;;;;;;;;;;;25.61;37.35;94073.50;5029516;28;6983;-56
2023/12/21 05:03:36;;;;;;;;;;;;;;;25.60;36.87;94063.75;5029878;28;6957;-55
2023/12/21 05:06:11;;;;;;;;;;;;;;;25.60;37.28;94058.97;5038584;28;7045;-55
2023/12/21 05:08:56;;;;;;;;;;;;;;;25.59;37.49;94046.47;5024399;28;7179;-55
2023/12/21 05:11:32;;;;;;;;;;;;;;;25.60;37.16;94036.94;5015118;28;7278;-54
2023/12/21 05:14:03;;;;;;;;;;;;;;;25.61;37.30;94037.69;5015228;28;6975;-55
2023/12/21 05:16:32;;;;;;;;;;;;;;;25.60;36.54;94033.47;5013230;28;8052;-55
2023/12/21 05:19:00;;;;;;;;;;;;;;;25.60;36.48;94020.41;5032017;28;7657;-55
2023/12/21 05:21:26;;;;;;;;;;;;;;;25.61;37.43;94010.91;5026415;28;7321;-55
2023/12/21 05:23:52;;;;;;;;;;;;;;;25.60;36.55;94003.88;5018503;28;6996;-55
2023/12/21 05:26:23;;;;;;;;;;;;;;;25.58;36.42;93983.66;5026617;28;7125;-55
2023/12/21 05:28:56;;;;;;;;;;;;;;;25.57;36.76;93996.69;5026520;28;9706;-55
2023/12/21 05:31:24;;;;;;;;;;;;;;;25.59;36.72;94004.41;5022180;28;7191;-55
2023/12/21 05:33:54;;;;;;;;;;;;;;;25.60;36.58;93997.66;5021503;28;8883;-55
2023/12/21 05:36:28;;;;;;;;;;;;;;;25.58;36.52;94011.19;5024366;28;7396;-62
2023/12/21 05:38:54;;;;;;;;;;;;;;;25.58;36.71;94011.94;5015191;28;7543;-62
2023/12/21 05:41:29;;;;;;;;;;;;;;;25.53;36.70;94007.25;5018492;28;9407;-62
2023/12/21 05:43:55;;;;;;;;;;;;;;;25.55;36.69;93995.72;5015844;28;6995;-62
2023/12/21 05:46:21;;;;;;;;;;;;;;;25.54;36.38;93994.97;5019760;28;6972;-62
2023/12/21 05:49:10;;;;;;;;;;;;;;;25.53;36.60;93990.72;5021331;28;9180;-62
2023/12/21 05:51:52;;;;;;;;;;;;;;;25.50;37.35;93988.25;5023408;28;7049;-62
2023/12/21 05:54:19;;;;;;;;;;;;;;;25.53;41.33;93993.47;5023903;28;6982;-63
2023/12/21 05:57:04;;;;;;;;;;;;;;;25.66;40.75;94007.34;5029461;28;7944;-63
2023/12/21 05:59:31;;;;;;;;;;;;;;;25.73;39.97;93995.69;5036555;28;8995;-62
2023/12/21 06:02:04;;;;;;;;;;;;;;;25.77;39.15;93990.66;5029405;28;7237;-62
2023/12/21 06:04:32;;;;;;;;;;;;;;;25.78;40.02;93977.63;5037195;28;7327;-63
2023/12/21 06:07:02;;;;;;;;;;;;;;;25.79;39.70;93976.38;5036985;28;7042;-62
2023/12/21 06:09:37;;;;;;;;;;;;;;;25.83;39.73;93987.81;5018720;28;6856;-63
2023/12/21 06:12:16;;;;;;;;;;;;;;;25.85;38.30;93986.03;5022796;28;7324;-62
2023/12/21 06:14:55;;;;;;;;;;;;;;;25.82;37.80;93981.56;5030453;28;7273;-62
2023/12/21 06:17:23;;;;;;;;;;;;;;;25.79;38.04;93979.88;5026546;28;7012;-62
2023/12/21 06:19:56;;;;;;;;;;;;;;;25.77;38.28;93989.91;5031537;28;7137;-62
2023/12/21 06:22:32;;;;;;;;;;;;;;;25.77;39.22;93978.91;5020331;28;7118;-61
2023/12/21 06:25:11;;;;;;;;;;;;;;;25.84;38.92;93989.28;5028471;28;9020;-62
2023/12/21 06:27:44;;;;;;;;;;;;;;;25.81;38.20;93993.88;5019550;28;9382;-62
2023/12/21 06:30:10;;;;;;;;;;;;;;;25.81;38.29;93988.34;5018067;28;7956;-62
2023/12/21 06:32:47;;;;;;;;;;;;;;;25.84;38.18;93998.31;5029252;28;6932;-62
2023/12/21 06:35:13;;;;;;;;;;;;;;;25.85;37.83;93975.03;5019877;28;9035;-62
2023/12/21 06:37:43;;;;;;;;;;;;;;;25.85;37.35;93975.03;5037907;28;7173;-62
2023/12/21 06:40:18;;;;;;;;;;;;;;;25.82;37.36;93965.03;5027137;28;7219;-62
2023/12/21 06:42:44;;;;;;;;;;;;;;;25.83;37.46;93966.53;5029342;28;9079;-62
2023/12/21 06:45:11;;;;;;;;;;;;;;;25.84;36.99;93967.25;5028013;28;7524;-62
2023/12/21 06:47:37;;;;;;;;;;;;;;;25.83;37.19;93974.03;5013416;28;7335;-55
2023/12/21 06:50:07;;;;;;;;;;;;;;;25.81;36.71;93974.56;5027436;28;9052;-55
2023/12/21 06:52:43;;;;;;;;;;;;;;;25.80;37.60;93978.59;5033051;28;8520;-55
2023/12/21 06:55:14;;;;;;;;;;;;;;;25.77;37.74;93982.41;5014482;28;9142;-55
2023/12/21 06:57:46;;;;;;;;;;;;;;;25.78;37.64;93983.88;5023199;28;10283;-55
2023/12/21 07:00:14;;;;;;;;;;;;;;;25.76;37.59;93971.88;5037216;28;8019;-55
2023/12/21 07:02:48;;;;;;;;;;;;;;;25.80;37.04;93964.81;5028646;28;7839;-55
2023/12/21 07:05:29;;;;;;;;;;;;;;;25.81;37.31;93957.28;5023382;28;7229;-55
2023/12/21 07:07:55;;;;;;;;;;;;;;;25.82;37.22;93961.53;5023221;28;8745;-55
2023/12/21 07:10:21;;;;;;;;;;;;;;;25.81;36.98;93974.56;5019007;28;7502;-55
2023/12/21 07:12:48;;;;;;;;;;;;;;;25.83;37.27;93972.03;5032959;28;6952;-55
2023/12/21 07:15:14;;;;;;;;;;;;;;;25.81;37.65;93962.81;5016696;28;7430;-55
2023/12/21 07:17:43;;;;;;;;;;;;;;;25.83;37.61;93952.75;5029726;28;7223;-55
2023/12/21 07:20:24;;;;;;;;;;;;;;;25.82;37.14;93943.00;5024432;28;7980;-55
2023/12/21 07:22:50;;;;;;;;;;;;;;;25.85;37.28;93939.19;5020539;28;7069;-55
2023/12/21 07:25:25;;;;;;;;;;;;;;;25.82;37.04;93936.72;5038664;28;7302;-55
2023/12/21 07:28:07;;;;;;;;;;;;;;;25.82;37.50;93926.47;5016615;28;8890;-55
2023/12/21 07:30:43;;;;;;;;;;;;;;;25.85;37.33;93935.69;5026368;28;7003;-55
2023/12/21 07:33:21;;;;;;;;;;;;;;;25.87;37.42;93933.91;5016270;28;7003;-55
2023/12/21 07:35:48;;;;;;;;;;;;;;;25.85;37.27;93919.91;5015403;28;7074;-56
2023/12/21 07:38:25;;;;;;;;;;;;;;;25.85;36.78;93930.94;5023145;28;7953;-55
2023/12/21 07:40:51;;;;;;;;;;;;;;;25.85;37.62;93928.19;5028765;28;7364;-55
2023/12/21 07:43:17;;;;;;;;;;;;;;;25.85;37.10;93924.69;5029776;28;6978;-55
2023/12/21 07:45:43;;;;;;;;;;;;;;;25.86;37.05;93937.91;5025131;28;7065;-55
2023/12/21 07:48:09;;;;;;;;;;;;;;;25.86;37.11;93929.66;5017304;28;9126;-56
2023/12/21 07:50:35;;;;;;;;;;;;;;;25.88;36.92;93924.38;5021343;28;7062;-55
2023/12/21 07:53:01;;;;;;;;;;;;;;;25.87;37.27;93922.88;5023813;28;9091;-55
2023/12/21 07:55:28;;;;;;;;;;;;;;;25.89;37.21;93920.34;5029189;28;9302;-55
2023/12/21 07:57:56;;;;;;;;;;;;;;;25.89;36.46;93908.59;5023131;28;7232;-61
2023/12/21 08:00:26;;;;;;;;;;;;;;;25.86;36.56;93893.13;5026163;28;7273;-61
2023/12/21 08:02:53;;;;;;;;;;;;;;;25.87;36.78;93902.84;5015199;28;7004;-60
2023/12/21 08:05:26;;;;;;;;;;;;;;;25.84;36.77;93890.13;5024371;28;7246;-61
2023/12/21 08:07:55;;;;;;;;;;;;;;;25.86;36.65;93893.84;5034562;28;7288;-61
2023/12/21 08:10:21;;;;;;;;;;;;;;;25.86;36.55;93884.84;5028028;28;7062;-60
2023/12/21 08:12:47;;;;;;;;;;;;;;;25.85;36.88;93877.84;5026001;28;8728;-61
2023/12/21 08:15:14;;;;;;;;;;;;;;;25.80;37.09;93865.63;5045276;28;7197;-61
2023/12/21 08:17:42;;;;;;;;;;;;;;;25.79;36.84;93858.66;5018125;28;7219;-61
2023/12/21 08:20:09;;;;;;;;;;;;;;;25.78;37.33;93854.41;5013440;28;7244;-61
2023/12/21 08:22:37;;;;;;;;;;;;;;;25.77;37.09;93857.69;5037404;28;7123;-61
2023/12/21 08:25:03;;;;;;;;;;;;;;;25.79;37.16;93849.66;5029291;28;7232;-61
2023/12/21 08:27:30;;;;;;;;;;;;;;;25.80;37.53;93846.34;5021930;28;7304;-61
2023/12/21 08:29:59;;;;;;;;;;;;;;;25.79;37.03;93839.38;5035783;28;8783;-61
2023/12/21 08:32:28;;;;;;;;;;;;;;;25.77;36.84;93836.41;5020491;28;7260;-61
2023/12/21 08:34:55;;;;;;;;;;;;;;;25.80;36.84;93831.84;5020278;28;9248;-61
2023/12/21 08:37:21;;;;;;;;;;;;;;;25.81;36.83;93830.56;5019363;28;6988;-61
2023/12/21 08:39:47;;;;;;;;;;;;;;;25.79;36.61;93828.34;5029982;28;7371;-61
2023/12/21 08:42:13;;;;;;;;;;;;;;;25.78;36.61;93826.84;5021388;28;7219;-60
2023/12/21 08:44:39;;;;;;;;;;;;;;;25.83;36.79;93836.31;5027376;28;9215;-60
2023/12/21 08:47:05;;;;;;;;;;;;;;;25.80;37.28;93832.59;5026739;28;7364;-60
2023/12/21 08:50:04;;;;;;;;;;;;;;;25.80;37.37;93829.81;5018878;28;7002;-61
2023/12/21 08:52:36;;;;;;;;;;;;;;;25.73;35.80;93840.72;4955433;28;7249;-61
2023/12/21 08:55:15;;;;;;;;;;;;;;;25.39;32.47;93838.44;4970030;28;9043;-62
2023/12/21 08:57:42;;;;;;;;;;;;;;;25.07;27.92;93842.41;4957758;28;7447;-61
2023/12/21 09:00:17;;;;;;;;;;;;;;;24.90;29.63;93844.63;4955347;28;7375;-60
2023/12/21 09:02:45;;;;;;;;;;;;;;;24.82;28.43;93827.94;4961357;28;9115;-60
2023/12/21 09:05:14;;;;;;;;;;;;;;;24.88;28.86;93831.38;4961017;28;7129;-60
2023/12/21 09:07:44;;;;;;;;;;;;;;;24.95;29.45;93832.78;4979696;28;7440;-61
2023/12/21 09:10:11;;;;;;;;;;;;;;;25.02;29.04;93830.19;4974042;28;9381;-62
2023/12/21 09:12:44;;;;;;;;;;;;;;;25.06;27.82;93832.63;4967217;28;7224;-62
2023/12/21 09:15:14;;;;;;;;;;;;;;;25.13;28.63;93830.03;4952637;28;7200;-62
2023/12/21 09:17:40;;;;;;;;;;;;;;;25.14;28.34;93833.56;4967458;28;7260;-62
2023/12/21 09:20:08;;;;;;;;;;;;;;;25.21;29.03;93852.94;4959033;28;7094;-62
2023/12/21 09:22:37;;;;;;;;;;;;;;;25.26;29.45;93854.13;4970288;28;7026;-62
2023/12/21 09:25:04;;;;;;;;;;;;;;;25.28;29.05;93846.84;4944734;28;8050;-62
2023/12/21 09:27:35;;;;;;;;;;;;;;;25.34;29.88;93866.03;4964935;28;9122;-63
2023/12/21 09:30:05;;;;;;;;;;;;;;;25.35;29.49;93870.28;5018099;28;7237;-62
2023/12/21 09:32:34;;;;;;;;;;;;;;;25.37;29.11;93876.00;5024102;28;7559;-62
2023/12/21 09:35:30;;;;;;;;;;;;;;;25.38;30.70;93877.50;5029153;28;7146;-62
2023/12/21 09:37:57;;;;;;;;;;;;;;;25.41;29.92;93892.97;4964491;28;9590;-62
2023/12/21 09:40:34;;;;;;;;;;;;;;;25.40;30.42;93883.25;4946003;28;9466;-62
2023/12/21 09:43:08;;;;;;;;;;;;;;;25.43;30.27;93882.22;4972291;28;7008;-62
2023/12/21 09:45:52;;;;;;;;;;;;;;;25.43;29.78;93884.97;4965969;28;7604;-62
2023/12/21 09:48:31;;;;;;;;;;;;;;;25.44;30.27;93875.44;4971251;28;7323;-62
2023/12/21 09:51:04;;;;;;;;;;;;;;;25.41;30.15;93887.47;4972101;28;7236;-62
2023/12/21 09:53:35;;;;;;;;;;;;;;;25.42;30.25;93881.47;4971782;28;9220;-62
2023/12/21 09:56:15;;;;;;;;;;;;;;;25.42;30.93;93878.69;4968738;28;8280;-63
2023/12/21 09:58:46;;;;;;;;;;;;;;;25.44;30.72;93875.44;4965797;28;9671;-62
2023/12/21 10:01:13;;;;;;;;;;;;;;;25.46;30.57;93874.91;4959734;28;7138;-62
2023/12/21 10:03:40;;;;;;;;;;;;;;;25.44;31.20;93858.94;4964195;28;7641;-62
2023/12/21 10:06:07;;;;;;;;;;;;;;;25.43;30.97;93857.44;4968234;28;9632;-62
2023/12/21 10:08:35;;;;;;;;;;;;;;;25.43;30.49;93854.69;4952622;28;8437;-62
2023/12/21 10:11:06;;;;;;;;;;;;;;;25.44;31.48;93845.16;4959597;28;6992;-62
2023/12/21 10:13:33;;;;;;;;;;;;;;;25.45;31.08;93835.63;4974710;28;9041;-63
2023/12/21 10:16:03;;;;;;;;;;;;;;;25.45;31.56;93829.41;5024730;28;7210;-62
2023/12/21 10:18:34;;;;;;;;;;;;;;;25.44;31.63;93806.63;5031296;28;9192;-62
2023/12/21 10:21:05;;;;;;;;;;;;;;;25.43;31.37;93796.84;5027376;28;9954;-63
2023/12/21 10:23:37;;;;;;;;;;;;;;;25.46;31.78;93768.28;5020360;28;8732;-63
2023/12/21 10:26:13;;;;;;;;;;;;;;;25.45;31.43;93758.53;5020180;28;7168;-63
2023/12/21 10:28:42;;;;;;;;;;;;;;;25.48;31.70;93751.97;5017919;28;7067;-63
2023/12/21 10:31:13;;;;;;;;;;;;;;;25.50;31.43;93741.19;5012053;28;8755;-63
2023/12/21 10:33:41;;;;;;;;;;;;;;;25.50;31.48;93729.44;5022238;28;9551;-63
2023/12/21 10:36:07;;;;;;;;;;;;;;;25.48;31.70;93710.69;5022777;28;7032;-62
2023/12/21 10:38:33;;;;;;;;;;;;;;;25.47;31.80;93698.19;5020691;28;9914;-62
2023/12/21 10:41:05;;;;;;;;;;;;;;;25.46;32.46;93695.97;5026279;28;8764;-63
2023/12/21 10:43:42;;;;;;;;;;;;;;;25.47;32.42;93700.94;5030643;28;7062;-63
2023/12/21 10:46:47;;;;;;;;;;;;;;;25.50;32.02;93694.38;5027538;28;7065;-63
2023/12/21 10:49:24;;;;;;;;;;;;;;;25.51;32.81;93701.38;5024123;28;9028;-63
2023/12/21 10:52:25;;;;;;;;;;;;;;;25.51;32.35;93701.38;5034603;28;7215;-63
2023/12/21 10:55:03;;;;;;;;;;;;;;;25.53;32.53;93709.84;5012732;28;7498;-62
2023/12/21 10:57:51;;;;;;;;;;;;;;;25.54;32.25;93705.06;5005443;28;7250;-62
2023/12/21 11:00:21;;;;;;;;;;;;;;;25.56;32.22;93710.78;4991034;28;7043;-62
2023/12/21 11:02:48;;;;;;;;;;;;;;;25.56;32.67;93719.06;5005976;28;7224;-63
2023/12/21 11:05:26;;;;;;;;;;;;;;;25.59;32.67;93743.53;4989138;28;7122;-62
2023/12/21 11:07:54;;;;;;;;;;;;;;;25.60;32.35;93742.25;5007556;28;7079;-63
2023/12/21 11:10:23;;;;;;;;;;;;;;;25.56;32.80;93733.56;4999017;28;9461;-62
2023/12/21 11:12:53;;;;;;;;;;;;;;;25.59;32.40;93731.78;5003984;28;7233;-63
2023/12/21 11:15:21;;;;;;;;;;;;;;;25.56;32.31;93733.56;5000214;28;7634;-63
2023/12/21 11:18:04;;;;;;;;;;;;;;;25.57;32.48;93726.81;4990016;28;7554;-63
2023/12/21 11:20:40;;;;;;;;;;;;;;;25.59;32.48;93687.72;4992919;28;7159;-62
2023/12/21 11:23:07;;;;;;;;;;;;;;;25.56;32.96;93673.00;5001820;28;7150;-63
2023/12/21 11:25:56;;;;;;;;;;;;;;;25.56;33.02;93672.25;4998211;28;7187;-56
2023/12/21 11:28:35;;;;;;;;;;;;;;;25.55;33.31;93648.75;5005959;28;7241;-55
2023/12/21 11:31:49;;;;;;;;;;;;;;;25.52;32.80;93627.75;5009891;28;7101;-55
2023/12/21 11:34:19;;;;;;;;;;;;;;;25.52;32.95;93625.75;4990302;28;6988;-55
2023/12/21 11:36:48;;;;;;;;;;;;;;;25.53;33.19;93624.50;4984257;28;7068;-55
2023/12/21 11:39:19;;;;;;;;;;;;;;;25.54;32.73;93614.94;4986979;28;9236;-55
2023/12/21 11:41:59;;;;;;;;;;;;;;;25.55;33.13;93615.69;4989566;28;7076;-55
2023/12/21 11:44:49;;;;;;;;;;;;;;;25.54;32.90;93598.44;4968614;28;9031;-55
2023/12/21 11:47:26;;;;;;;;;;;;;;;25.57;33.36;93588.38;4967247;28;7072;-55
2023/12/21 11:50:11;;;;;;;;;;;;;;;25.57;33.67;93575.34;4989142;28;9497;-55
2023/12/21 11:52:48;;;;;;;;;;;;;;;25.56;33.80;93565.59;4976822;28;7281;-56
2023/12/21 11:55:29;;;;;;;;;;;;;;;25.59;33.72;93567.31;4965767;28;9132;-55
2023/12/21 11:58:19;;;;;;;;;;;;;;;25.61;33.92;93577.78;4972536;28;7058;-55
2023/12/21 12:00:56;;;;;;;;;;;;;;;25.57;33.70;93561.59;4988622;28;9700;-56
2023/12/21 12:03:32;;;;;;;;;;;;;;;25.58;33.67;93557.53;4970635;28;8781;-55
2023/12/21 12:06:00;;;;;;;;;;;;;;;25.61;33.50;93541.97;4990331;28;9057;-56
2023/12/21 12:08:28;;;;;;;;;;;;;;;25.63;33.32;93528.41;4963027;28;9433;-56
2023/12/21 12:10:59;;;;;;;;;;;;;;;25.58;33.78;93521.75;5007367;28;7135;-56
2023/12/21 12:13:25;;;;;;;;;;;;;;;25.63;34.07;93498.88;5041880;28;6989;-55
2023/12/21 12:16:00;;;;;;;;;;;;;;;25.63;33.83;93487.13;5025415;28;6971;-56
2023/12/21 12:18:44;;;;;;;;;;;;;;;25.61;33.41;93509.69;5033915;28;7427;-55
2023/12/21 12:21:18;;;;;;;;;;;;;;;25.63;33.67;93496.13;5032676;28;7547;-55
2023/12/21 12:24:07;;;;;;;;;;;;;;;25.65;33.30;93510.09;5034329;28;8024;-56
2023/12/21 12:26:44;;;;;;;;;;;;;;;25.63;33.94;93501.63;5035510;28;8511;-56
2023/12/21 12:29:30;;;;;;;;;;;;;;;25.61;33.50;93508.94;5025402;28;7271;-55
2023/12/21 12:32:03;;;;;;;;;;;;;;;25.62;34.39;93513.91;5019762;28;7335;-55
2023/12/21 12:35:01;;;;;;;;;;;;;;;25.63;34.14;93518.16;5024105;28;7655;-55
2023/12/21 12:37:31;;;;;;;;;;;;;;;25.62;33.79;93524.91;5007705;28;7036;-56
2023/12/21 12:39:57;;;;;;;;;;;;;;;25.63;33.99;93529.16;5005440;28;8264;-56
2023/12/21 12:42:23;;;;;;;;;;;;;;;25.62;34.07;93543.47;4995977;28;7240;-57
2023/12/21 12:44:51;;;;;;;;;;;;;;;25.61;33.99;93526.22;5000397;28;9008;-56
2023/12/21 12:47:20;;;;;;;;;;;;;;;25.62;33.88;93522.16;5010828;28;8757;-56
2023/12/21 12:49:59;;;;;;;;;;;;;;;25.62;33.95;93511.16;5000824;28;7256;-56
2023/12/21 12:52:38;;;;;;;;;;;;;;;25.62;34.07;93513.91;5010914;28;7066;-57
2023/12/21 12:55:15;;;;;;;;;;;;;;;25.59;34.31;93512.22;5008046;28;7201;-56
2023/12/21 12:57:49;;;;;;;;;;;;;;;25.65;34.89;93503.84;4996759;28;6934;-56
2023/12/21 13:00:21;;;;;;;;;;;;;;;25.62;34.00;93494.63;5010414;28;6960;-56
2023/12/21 13:03:25;;;;;;;;;;;;;;;25.62;34.82;93483.63;5009363;28;7017;-56
2023/12/21 13:06:28;;;;;;;;;;;;;;;25.63;34.79;93457.56;5004674;28;9583;-56
2023/12/21 13:08:59;;;;;;;;;;;;;;;25.63;34.14;93463.06;5007419;28;8223;-56
2023/12/21 13:11:59;;;;;;;;;;;;;;;25.65;34.88;93459.78;4988810;28;7477;-56
2023/12/21 13:14:35;;;;;;;;;;;;;;;25.62;34.46;93461.59;4971481;28;7122;-56
2023/12/21 13:17:04;;;;;;;;;;;;;;;25.61;34.01;93451.09;4991233;28;8820;-56
2023/12/21 13:19:39;;;;;;;;;;;;;;;25.60;34.65;93430.38;4982402;28;8761;-56
2023/12/21 13:22:13;;;;;;;;;;;;;;;25.62;33.78;93428.53;4970297;28;7939;-56
2023/12/21 13:24:48;;;;;;;;;;;;;;;25.62;34.15;93431.28;4974641;28;7682;-57
2023/12/21 13:27:19;;;;;;;;;;;;;;;25.61;34.31;93421.56;4972601;28;7142;-56
2023/12/21 13:29:46;;;;;;;;;;;;;;;25.64;34.45;93409.50;4989384;28;7400;-56
2023/12/21 13:32:17;;;;;;;;;;;;;;;25.63;34.31;93391.47;4988074;28;9183;-56